Time;durP1;ratioP1;P1;durP2;ratioP2;P2;SDS_P1;SDS_P2;PMS_P1;PMS_P2;Temp;Humidity;BMP_temperature;BMP_pressure;BME280_temperature;BME280_humidity;BME280_pressure;Samples;Min_cycle;Max_cycle;Signal;HPM_P1;HPM_P2
2021/06/24 00:01:48;;;;;;;2.43;2.07;;;26.20;43.00;;;;;;8262837;28;20363;-50
2021/06/24 00:05:49;;;;;;;;;;;26.20;43.00;;;;;;8264557;28;20403;-49
2021/06/24 00:09:49;;;;;;;1.87;1.70;;;26.20;43.10;;;;;;8278683;28;20287;-49
2021/06/24 00:13:50;;;;;;;;;;;26.20;43.10;;;;;;8263905;28;20085;-50
2021/06/24 00:17:54;;;;;;;2.70;1.73;;;26.20;43.10;;;;;;8268036;28;20003;-48
2021/06/24 00:21:55;;;;;;;2.15;1.30;;;26.20;43.10;;;;;;8261485;28;20046;-51
2021/06/24 00:25:56;;;;;;;1.98;1.35;;;26.20;43.10;;;;;;8239835;28;20039;-49
2021/06/24 00:29:56;;;;;;;1.98;1.33;;;26.20;43.10;;;;;;8263171;28;20093;-51
2021/06/24 00:33:57;;;;;;;;;;;26.10;43.10;;;;;;8267624;28;20054;-51
2021/06/24 00:37:57;;;;;;;1.30;1.20;;;26.10;43.10;;;;;;8263084;28;20000;-49
2021/06/24 00:42:00;;;;;;;1.90;1.40;;;26.10;43.10;;;;;;8263166;28;20092;-52
2021/06/24 00:46:00;;;;;;;1.92;1.73;;;26.10;43.10;;;;;;8260862;28;20038;-51
2021/06/24 00:50:01;;;;;;;1.85;1.33;;;26.10;43.10;;;;;;8231354;28;20031;-49
2021/06/24 00:54:02;;;;;;;1.83;1.52;;;26.10;43.10;;;;;;8251245;28;20053;-51
2021/06/24 00:58:02;;;;;;;1.95;1.40;;;26.10;43.10;;;;;;8262055;28;20060;-49
2021/06/24 01:02:05;;;;;;;1.55;1.45;;;26.10;43.10;;;;;;8262212;28;20039;-49
2021/06/24 01:06:05;;;;;;;1.38;1.25;;;26.10;43.20;;;;;;8262064;28;20053;-49
2021/06/24 01:10:06;;;;;;;1.92;1.58;;;26.10;43.10;;;;;;8265870;28;20089;-48
2021/06/24 01:14:07;;;;;;;;;;;26.10;43.10;;;;;;8252204;28;20145;-51
2021/06/24 01:18:08;;;;;;;1.45;1.35;;;26.10;43.10;;;;;;8229458;28;19914;-49
2021/06/24 01:22:09;;;;;;;2.28;1.50;;;26.10;43.10;;;;;;8255846;28;20049;-51
2021/06/24 01:26:10;;;;;;;1.40;1.30;;;26.10;43.20;;;;;;8265868;28;20061;-49
2021/06/24 01:30:11;;;;;;;1.92;1.45;;;26.00;43.10;;;;;;8261189;28;20377;-50
2021/06/24 01:34:12;;;;;;;1.60;1.50;;;26.00;43.10;;;;;;8260736;28;20089;-50
2021/06/24 01:38:13;;;;;;;1.73;1.60;;;26.00;43.10;;;;;;8261575;28;20039;-49
2021/06/24 01:42:14;;;;;;;2.28;1.40;;;26.00;43.10;;;;;;8260507;28;20443;-49
2021/06/24 01:46:14;;;;;;;1.45;1.35;;;26.00;43.10;;;;;;8265166;28;20058;-52
2021/06/24 01:50:15;;;;;;;4.25;1.40;;;26.00;43.10;;;;;;8260987;28;20097;-51
2021/06/24 01:54:17;;;;;;;;;;;26.00;43.10;;;;;;8261103;28;20050;-53
2021/06/24 01:58:21;;;;;;;2.05;1.20;;;26.00;43.10;;;;;;8260018;28;20000;-49
2021/06/24 02:02:22;;;;;;;1.48;1.25;;;25.90;43.10;;;;;;8265393;28;20065;-50
2021/06/24 02:06:22;;;;;;;1.50;1.40;;;25.90;43.10;;;;;;8232508;28;20031;-52
2021/06/24 02:10:23;;;;;;;1.40;1.30;;;25.90;43.10;;;;;;8248119;28;20042;-48
2021/06/24 02:14:24;;;;;;;;;;;25.90;43.10;;;;;;8261392;28;20046;-52
2021/06/24 02:18:25;;;;;;;1.40;1.30;;;25.90;43.10;;;;;;8261881;28;19913;-53
2021/06/24 02:22:25;;;;;;;;;;;25.90;43.10;;;;;;8235194;28;20062;-50
2021/06/24 02:26:26;;;;;;;1.97;1.57;;;25.90;43.20;;;;;;8241365;28;19914;-49
2021/06/24 02:30:27;;;;;;;;;;;25.90;43.20;;;;;;8261192;28;20039;-49
2021/06/24 02:34:28;;;;;;;1.83;1.60;;;25.80;43.10;;;;;;8230774;28;19926;-49
2021/06/24 02:38:28;;;;;;;;;;;25.80;43.10;;;;;;8246378;28;20051;-49
2021/06/24 02:42:29;;;;;;;1.77;1.67;;;25.80;43.20;;;;;;8261684;28;20025;-49
2021/06/24 02:46:29;;;;;;;;;;;25.80;43.10;;;;;;8266456;28;20121;-50
2021/06/24 02:50:30;;;;;;;1.50;1.40;;;25.80;43.20;;;;;;8266949;28;19930;-50
2021/06/24 02:54:30;;;;;;;;;;;25.80;43.20;;;;;;8270877;28;20046;-50
2021/06/24 02:58:31;;;;;;;1.90;1.27;;;25.80;43.20;;;;;;8236221;28;19960;-49
2021/06/24 03:02:31;;;;;;;1.20;1.10;;;25.80;43.20;;;;;;8254640;28;20049;-49
2021/06/24 03:06:35;;;;;;;2.17;1.40;;;25.80;43.20;;;;;;8265859;28;20035;-49
2021/06/24 03:10:36;;;;;;;1.35;1.23;;;25.80;43.20;;;;;;8265171;28;20038;-50
2021/06/24 03:14:36;;;;;;;1.10;1.00;;;25.80;43.20;;;;;;8269917;28;20446;-49
2021/06/24 03:18:37;;;;;;;1.58;1.45;;;25.80;43.20;;;;;;8265486;28;20084;-52
2021/06/24 03:22:37;;;;;;;1.90;1.25;;;25.80;43.20;;;;;;8250787;28;20041;-52
2021/06/24 03:26:38;;;;;;;1.52;1.35;;;25.70;43.10;;;;;;8238528;28;20559;-50
2021/06/24 03:30:40;;;;;;;1.70;1.27;;;25.70;43.20;;;;;;8269708;28;20136;-50
2021/06/24 03:34:40;;;;;;;1.48;1.38;;;25.70;43.20;;;;;;8265123;28;20499;-49
2021/06/24 03:38:44;;;;;;;1.35;1.25;;;25.70;43.10;;;;;;8264878;28;20041;-49
2021/06/24 03:42:46;;;;;;;2.30;1.23;;;25.70;43.20;;;;;;8264349;28;20038;-49
2021/06/24 03:46:46;;;;;;;1.27;1.17;;;25.70;43.20;;;;;;8268288;28;20507;-51
2021/06/24 03:50:47;;;;;;;1.30;1.20;;;25.70;43.20;;;;;;8265333;28;20053;-51
2021/06/24 03:54:47;;;;;;;2.25;1.40;;;25.60;43.10;;;;;;8263596;28;20050;-49
2021/06/24 03:58:48;;;;;;;;;;;25.70;43.20;;;;;;8263980;28;20093;-49
2021/06/24 04:02:49;;;;;;;3.60;1.27;;;25.60;43.10;;;;;;8264186;28;20016;-48
2021/06/24 04:06:49;;;;;;;2.95;1.48;;;25.60;43.20;;;;;;8268489;28;20039;-49
2021/06/24 04:10:50;;;;;;;;;;;25.60;43.20;;;;;;8263773;28;20030;-50
2021/06/24 04:14:50;;;;;;;1.80;1.60;;;25.60;43.20;;;;;;8263536;28;19928;-50
2021/06/24 04:18:51;;;;;;;2.22;1.63;;;25.60;43.20;;;;;;8262983;28;20443;-48
2021/06/24 04:22:51;;;;;;;1.63;1.35;;;25.60;43.20;;;;;;8267789;28;20057;-51
2021/06/24 04:26:52;;;;;;;3.05;1.50;;;25.60;43.20;;;;;;8263128;28;20124;-49
2021/06/24 04:30:52;;;;;;;;;;;25.60;43.20;;;;;;8262929;28;20046;-50
2021/06/24 04:34:53;;;;;;;2.33;1.45;;;25.60;43.20;;;;;;8263080;28;19922;-49
2021/06/24 04:38:53;;;;;;;1.83;1.30;;;25.60;43.20;;;;;;8264074;28;20030;-49
2021/06/24 04:42:54;;;;;;;2.35;1.45;;;25.60;43.20;;;;;;8266360;28;20047;-51
2021/06/24 04:46:54;;;;;;;2.30;1.38;;;25.60;43.10;;;;;;8262920;28;20022;-49
2021/06/24 04:50:55;;;;;;;1.38;1.20;;;25.60;43.10;;;;;;8262505;28;20053;-48
2021/06/24 04:54:55;;;;;;;;;;;25.60;43.20;;;;;;8262284;28;20054;-49
2021/06/24 04:58:56;;;;;;;2.00;1.75;;;25.60;43.20;;;;;;8266673;28;20449;-49
2021/06/24 05:02:56;;;;;;;1.83;1.40;;;25.60;43.20;;;;;;8262150;28;20491;-48
2021/06/24 05:07:02;;;;;;;1.30;1.20;;;25.50;43.10;;;;;;8244870;28;20038;-49
2021/06/24 05:11:03;;;;;;;1.40;1.30;;;25.60;43.20;;;;;;8238364;28;20447;-48
2021/06/24 05:15:04;;;;;;;1.90;1.30;;;25.60;43.20;;;;;;8266313;28;20050;-49
2021/06/24 05:19:04;;;;;;;;;;;25.60;43.20;;;;;;8261541;28;20122;-52
2021/06/24 05:23:07;;;;;;;3.87;1.40;;;25.50;43.20;;;;;;8261542;28;19917;-49
2021/06/24 05:27:08;;;;;;;1.98;1.35;;;25.50;43.20;;;;;;8261461;28;20435;-49
2021/06/24 05:31:09;;;;;;;;;;;25.50;43.20;;;;;;8261494;28;20046;-49
2021/06/24 05:35:10;;;;;;;1.52;1.40;;;25.50;43.20;;;;;;8265954;28;20437;-48
2021/06/24 05:39:11;;;;;;;2.47;1.48;;;25.50;43.20;;;;;;8261133;28;20037;-49
2021/06/24 05:43:12;;;;;;;1.52;1.42;;;25.50;43.20;;;;;;8260842;28;20038;-49
2021/06/24 05:47:12;;;;;;;2.05;1.33;;;25.50;43.20;;;;;;8261316;28;20081;-50
2021/06/24 05:51:13;;;;;;;2.35;1.30;;;25.50;43.30;;;;;;8265473;28;20488;-49
2021/06/24 05:55:13;;;;;;;2.10;1.40;;;25.50;43.20;;;;;;8260299;28;20062;-48
2021/06/24 05:59:14;;;;;;;;;;;25.50;43.30;;;;;;8242789;28;20035;-50
2021/06/24 06:03:15;;;;;;;1.50;1.30;;;25.50;43.30;;;;;;8239058;28;20345;-49
2021/06/24 06:07:16;;;;;;;1.52;1.35;;;25.40;43.20;;;;;;8261543;28;20030;-48
2021/06/24 06:11:18;;;;;;;1.92;1.50;;;25.50;43.30;;;;;;8264390;28;20039;-49
2021/06/24 06:15:19;;;;;;;1.35;1.25;;;25.50;43.80;;;;;;8260760;28;20058;-48
2021/06/24 06:19:19;;;;;;;1.75;1.10;;;25.50;43.30;;;;;;8264796;28;20492;-48
2021/06/24 06:23:21;;;;;;;1.20;1.10;;;25.50;43.30;;;;;;8263633;28;20046;-49
2021/06/24 06:27:22;;;;;;;1.42;1.15;;;25.40;43.30;;;;;;8239362;28;20054;-48
2021/06/24 06:31:24;;;;;;;1.27;1.17;;;25.40;43.30;;;;;;8261242;28;20085;-48
2021/06/24 06:35:25;;;;;;;1.30;1.20;;;25.40;43.30;;;;;;8266941;28;20082;-52
2021/06/24 06:39:25;;;;;;;2.65;1.50;;;25.40;43.30;;;;;;8266582;28;20049;-53
2021/06/24 06:43:26;;;;;;;1.23;1.08;;;25.40;43.30;;;;;;8270688;28;20039;-52
2021/06/24 06:47:27;;;;;;;1.83;1.48;;;25.40;43.30;;;;;;8266710;28;20038;-50
2021/06/24 06:51:27;;;;;;;1.40;1.25;;;25.40;43.30;;;;;;8266240;28;20031;-49
2021/06/24 06:55:28;;;;;;;1.17;1.08;;;25.40;43.30;;;;;;8265615;28;20042;-49
2021/06/24 06:59:34;;;;;;;1.40;1.30;;;25.40;43.30;;;;;;8266237;28;20043;-49
2021/06/24 07:03:35;;;;;;;1.55;1.20;;;25.40;43.30;;;;;;8270614;28;20488;-49
2021/06/24 07:07:35;;;;;;;2.47;1.25;;;25.40;43.30;;;;;;8265389;28;20038;-49
2021/06/24 07:11:36;;;;;;;1.50;1.40;;;25.40;43.40;;;;;;8266074;28;20100;-52
2021/06/24 07:15:36;;;;;;;1.35;1.25;;;25.40;43.40;;;;;;8265671;28;20053;-49
2021/06/24 07:19:37;;;;;;;2.70;1.30;;;25.40;43.40;;;;;;8238980;28;20408;-50
2021/06/24 07:23:38;;;;;;;1.80;1.55;;;25.40;43.40;;;;;;8247464;28;20407;-49
2021/06/24 07:27:38;;;;;;;1.45;1.20;;;25.40;43.40;;;;;;8264433;28;20035;-49
2021/06/24 07:31:39;;;;;;;1.55;1.40;;;25.40;43.40;;;;;;8264493;28;20054;-48
2021/06/24 07:35:39;;;;;;;3.78;1.33;;;25.40;43.40;;;;;;8266993;28;20488;-50
2021/06/24 07:39:40;;;;;;;1.23;1.13;;;25.40;43.50;;;;;;8267745;28;20042;-50
2021/06/24 07:43:41;;;;;;;1.40;1.30;;;25.40;43.50;;;;;;8257445;28;20037;-50
2021/06/24 07:47:42;;;;;;;1.40;1.30;;;25.30;43.40;;;;;;8232313;28;20428;-50
2021/06/24 07:51:43;;;;;;;1.50;1.40;;;25.40;43.50;;;;;;8255459;28;20081;-49
2021/06/24 07:55:44;;;;;;;1.85;1.45;;;25.40;43.50;;;;;;8268176;28;20042;-50
2021/06/24 07:59:44;;;;;;;1.60;1.50;;;25.40;43.50;;;;;;8264609;28;20150;-50
2021/06/24 08:03:45;;;;;;;1.80;1.30;;;25.30;43.50;;;;;;8264443;28;20545;-49
2021/06/24 08:07:47;;;;;;;1.60;1.38;;;25.30;43.50;;;;;;8263172;28;20034;-49
2021/06/24 08:11:48;;;;;;;1.10;1.00;;;25.30;43.50;;;;;;8268158;28;20046;-51
2021/06/24 08:15:49;;;;;;;1.00;1.00;;;25.30;43.60;;;;;;8263737;28;20046;-52
2021/06/24 08:19:50;;;;;;;0.98;0.88;;;25.30;43.60;;;;;;8262989;28;20057;-52
2021/06/24 08:23:50;;;;;;;1.70;1.60;;;25.30;43.60;;;;;;8263687;28;20030;-52
2021/06/24 08:27:51;;;;;;;1.60;1.30;;;25.30;43.60;;;;;;8262800;28;20053;-50
2021/06/24 08:31:51;;;;;;;1.70;1.23;;;25.30;43.60;;;;;;8267576;28;20030;-51
2021/06/24 08:35:52;;;;;;;1.60;1.20;;;25.20;43.60;;;;;;8263109;28;20042;-51
2021/06/24 08:39:53;;;;;;;2.80;1.60;;;25.20;43.60;;;;;;8261342;28;20058;-49
2021/06/24 08:43:54;;;;;;;1.27;1.15;;;25.20;43.60;;;;;;8262696;28;20113;-52
2021/06/24 08:47:56;;;;;;;1.20;1.10;;;25.20;43.60;;;;;;8267307;28;20045;-49
2021/06/24 08:52:00;;;;;;;1.70;1.35;;;25.20;43.60;;;;;;8262130;28;20096;-49
2021/06/24 08:56:00;;;;;;;1.23;1.00;;;25.20;43.60;;;;;;8262783;28;20129;-51
2021/06/24 09:00:04;;;;;;;1.17;1.08;;;25.20;43.60;;;;;;8262222;28;20041;-52
2021/06/24 09:04:16;;;;;;;1.67;1.20;;;25.20;43.70;;;;;;8264267;28;20046;-50
2021/06/24 09:08:43;;;;;;;1.58;1.20;;;25.20;43.70;;;;;;8234686;28;20122;-52
2021/06/24 09:13:02;;;;;;;1.10;0.98;;;25.20;43.60;;;;;;8257694;28;20389;-51
2021/06/24 09:17:02;;;;;;;1.45;1.23;;;25.20;43.60;;;;;;8261760;28;20052;-53
2021/06/24 09:21:03;;;;;;;1.17;1.05;;;25.20;43.70;;;;;;8261773;28;20034;-52
2021/06/24 09:25:04;;;;;;;1.50;1.40;;;25.20;43.70;;;;;;8259350;28;20038;-52
2021/06/24 09:29:15;;;;;;;1.88;1.30;;;25.20;43.70;;;;;;8234231;28;20098;-52
2021/06/24 09:33:17;;;;;;;1.30;1.20;;;25.20;43.70;;;;;;8248691;28;20132;-52
2021/06/24 09:37:18;;;;;;;1.30;1.10;;;25.20;43.70;;;;;;8261110;28;20104;-50
2021/06/24 09:41:19;;;;;;;1.60;1.30;;;25.20;43.70;;;;;;8261072;28;20073;-53
2021/06/24 09:45:19;;;;;;;1.33;1.10;;;25.20;43.70;;;;;;8265870;28;20384;-53
2021/06/24 09:49:35;;;;;;;1.23;1.10;;;25.20;43.70;;;;;;8260932;28;20042;-51
2021/06/24 09:54:03;;;;;;;2.42;1.20;;;25.20;43.70;;;;;;8260965;28;20419;-50
2021/06/24 09:58:14;;;;;;;1.33;1.10;;;25.20;43.70;;;;;;8260489;28;20079;-50
2021/06/24 10:02:14;;;;;;;1.20;1.10;;;25.20;43.70;;;;;;8260387;28;20134;-52
2021/06/24 10:06:15;;;;;;;1.15;1.08;;;25.20;43.80;;;;;;8265372;28;20510;-52
2021/06/24 10:10:17;;;;;;;1.17;0.85;;;25.20;43.80;;;;;;8260455;28;20156;-52
2021/06/24 10:14:19;;;;;;;1.60;1.15;;;25.20;43.80;;;;;;8260496;28;20415;-52
2021/06/24 10:18:22;;;;;;;1.10;1.00;;;25.20;43.80;;;;;;8260524;28;20065;-52
2021/06/24 10:22:31;;;;;;;1.40;1.10;;;25.30;43.80;;;;;;8260157;28;20050;-52
2021/06/24 10:26:33;;;;;;;1.35;1.10;;;25.30;43.80;;;;;;8265170;28;20045;-53
2021/06/24 10:30:42;;;;;;;1.20;0.90;;;25.30;43.80;;;;;;8260679;28;20153;-52
2021/06/24 10:34:46;;;;;;;1.00;0.93;;;25.30;43.80;;;;;;8259969;28;20137;-51
2021/06/24 10:38:51;;;;;;;1.20;1.10;;;25.30;43.80;;;;;;8260739;28;20038;-50
2021/06/24 10:42:57;;;;;;;1.33;1.13;;;25.30;43.80;;;;;;8262963;28;20039;-51
2021/06/24 10:47:05;;;;;;;1.20;1.10;;;25.30;43.70;;;;;;8240504;28;20042;-52
2021/06/24 10:51:08;;;;;;;1.60;1.23;;;25.30;43.70;;;;;;8260326;28;20030;-49
2021/06/24 10:55:34;;;;;;;1.88;0.93;;;25.30;43.70;;;;;;8259622;28;20053;-52
2021/06/24 10:59:35;;;;;;;1.10;1.00;;;25.40;43.70;;;;;;8260127;28;20512;-50
2021/06/24 11:03:41;;;;;;;1.98;1.20;;;25.40;43.70;;;;;;8265936;28;20174;-51
2021/06/24 11:07:42;;;;;;;1.88;1.05;;;25.40;43.70;;;;;;8266894;28;20034;-52
2021/06/24 11:11:44;;;;;;;;;;;25.40;43.70;;;;;;8243919;28;20590;-49
2021/06/24 11:15:55;;;;;;;1.10;0.90;;;25.40;43.70;;;;;;8246537;28;19925;-51
2021/06/24 11:20:12;;;;;;;;;;;25.50;43.70;;;;;;8265622;28;20169;-49
2021/06/24 11:24:16;;;;;;;0.77;0.77;;;25.50;43.70;;;;;;8269581;28;19914;-50
2021/06/24 11:28:36;;;;;;;1.02;0.93;;;25.50;43.60;;;;;;8264689;28;20492;-49
2021/06/24 11:32:39;;;;;;;1.70;0.93;;;25.50;43.60;;;;;;8264970;28;20046;-49
2021/06/24 11:36:49;;;;;;;0.90;0.88;;;25.60;43.60;;;;;;8264974;28;20133;-50
2021/06/24 11:40:59;;;;;;;1.13;1.02;;;25.60;43.60;;;;;;8264184;28;20080;-49
2021/06/24 11:45:01;;;;;;;0.93;0.80;;;25.60;43.50;;;;;;8269213;28;20117;-49
2021/06/24 11:49:29;;;;;;;1.10;1.00;;;25.60;43.50;;;;;;8263492;28;20045;-47
2021/06/24 12:06:40;;;;;;;1.38;1.00;;;25.70;43.50;;;;;;8243325;28;20154;-50
2021/06/24 12:10:42;;;;;;;0.80;0.80;;;25.70;43.40;;;;;;8266490;28;20138;-49
2021/06/24 12:14:44;;;;;;;1.98;1.30;;;25.80;43.50;;;;;;8263847;28;20046;-48
2021/06/24 12:18:45;;;;;;;0.98;0.90;;;25.80;43.40;;;;;;8263764;28;20038;-48
2021/06/24 12:22:48;;;;;;;0.95;0.80;;;25.80;43.40;;;;;;8262933;28;20558;-50
2021/06/24 12:26:49;;;;;;;0.80;0.80;;;25.80;43.40;;;;;;8267762;28;20062;-48
2021/06/24 12:30:51;;;;;;;1.35;0.90;;;25.80;43.30;;;;;;8238828;28;20039;-52
2021/06/24 12:34:57;;;;;;;0.98;0.82;;;25.80;43.30;;;;;;8262751;28;20138;-49
2021/06/24 12:38:57;;;;;;;1.20;1.10;;;25.90;43.40;;;;;;8262785;28;20395;-51
2021/06/24 12:43:00;;;;;;;0.90;0.90;;;25.90;43.30;;;;;;8262241;28;20046;-51
2021/06/24 12:47:00;;;;;;;0.88;0.80;;;25.90;43.30;;;;;;8267096;28;20049;-52
2021/06/24 12:51:07;;;;;;;1.05;0.95;;;25.90;43.30;;;;;;8262576;28;20491;-53
2021/06/24 12:55:38;;;;;;;0.95;0.82;;;25.90;43.30;;;;;;8261441;28;20109;-52
2021/06/24 12:59:45;;;;;;;;;;;26.00;43.30;;;;;;8262553;28;20042;-52
2021/06/24 13:03:49;;;;;;;0.77;0.70;;;26.00;43.30;;;;;;8261838;28;19921;-49
2021/06/24 13:08:02;;;;;;;1.08;0.90;;;26.00;43.30;;;;;;8266034;28;20026;-50
2021/06/24 13:12:08;;;;;;;1.05;0.93;;;26.00;43.30;;;;;;8244150;28;20058;-51
2021/06/24 13:16:31;;;;;;;0.80;0.70;;;26.00;43.20;;;;;;8231581;28;20047;-49
2021/06/24 13:20:31;;;;;;;1.05;0.90;;;26.10;43.20;;;;;;8263441;28;20047;-50
2021/06/24 13:24:36;;;;;;;1.67;0.98;;;26.00;43.20;;;;;;8233117;28;20035;-52
2021/06/24 13:28:37;;;;;;;0.80;0.80;;;26.10;43.30;;;;;;8264944;28;20089;-47
2021/06/24 13:32:44;;;;;;;0.80;0.80;;;26.00;43.20;;;;;;8259864;28;20522;-49
2021/06/24 13:36:45;;;;;;;1.00;0.82;;;26.10;43.20;;;;;;8260737;28;20038;-52
2021/06/24 13:40:47;;;;;;;1.00;0.80;;;26.10;43.20;;;;;;8264188;28;20034;-51
2021/06/24 13:44:48;;;;;;;0.70;0.70;;;26.10;43.20;;;;;;8238471;28;20034;-49
2021/06/24 13:48:49;;;;;;;0.80;0.80;;;26.00;43.20;;;;;;8252031;28;20455;-48
2021/06/24 13:52:49;;;;;;;1.58;0.93;;;26.00;43.20;;;;;;8231094;28;20045;-49
2021/06/24 13:56:52;;;;;;;0.70;0.68;;;26.00;43.20;;;;;;8260300;28;20034;-50
2021/06/24 14:00:53;;;;;;;1.50;1.00;;;26.00;43.20;;;;;;8260031;28;20034;-52
2021/06/24 14:04:53;;;;;;;;;;;26.00;43.10;;;;;;8265570;28;20034;-53
2021/06/24 14:08:54;;;;;;;1.20;1.00;;;25.90;43.10;;;;;;8260615;28;20336;-52
2021/06/24 14:12:54;;;;;;;;;;;25.90;43.30;;;;;;8253357;28;20038;-53
2021/06/24 14:16:55;;;;;;;1.13;1.03;;;25.90;43.30;;;;;;8235410;28;19910;-50
2021/06/24 14:20:56;;;;;;;1.23;0.80;;;25.90;43.40;;;;;;8265013;28;20074;-51
2021/06/24 14:24:57;;;;;;;1.02;0.82;;;25.80;43.30;;;;;;8270517;28;20053;-50
2021/06/24 14:28:59;;;;;;;1.30;0.80;;;25.80;43.40;;;;;;8259762;28;20045;-49
2021/06/24 14:32:59;;;;;;;0.82;0.82;;;25.80;43.40;;;;;;8249883;28;20135;-51
2021/06/24 14:37:00;;;;;;;1.42;0.70;;;25.80;43.40;;;;;;8251509;28;20035;-51
2021/06/24 14:41:00;;;;;;;1.10;0.88;;;25.80;43.50;;;;;;8245888;28;20026;-49
2021/06/24 14:45:01;;;;;;;1.08;0.98;;;25.80;43.50;;;;;;8265556;28;20065;-52
2021/06/24 14:49:02;;;;;;;;;;;25.80;43.50;;;;;;8266094;28;20066;-52
2021/06/24 14:53:03;;;;;;;1.23;1.13;;;25.80;43.60;;;;;;8264843;28;20347;-52
2021/06/24 14:57:04;;;;;;;0.80;0.75;;;25.80;43.60;;;;;;8270618;28;20262;-52
2021/06/24 15:01:05;;;;;;;1.05;0.90;;;25.80;43.60;;;;;;8268936;28;20492;-52
2021/06/24 15:05:07;;;;;;;1.50;0.90;;;25.70;43.60;;;;;;8264967;28;20042;-52
2021/06/24 15:09:08;;;;;;;0.75;0.75;;;25.70;43.60;;;;;;8275745;28;20499;-49
2021/06/24 15:13:09;;;;;;;1.02;0.80;;;25.70;43.60;;;;;;8269425;28;20055;-52
2021/06/24 15:17:09;;;;;;;;;;;25.70;43.60;;;;;;8262489;28;20089;-52
2021/06/24 15:21:10;;;;;;;0.80;0.80;;;25.70;43.60;;;;;;8257636;28;19921;-46
2021/06/24 15:25:11;;;;;;;;;;;25.70;43.60;;;;;;8260453;28;20039;-51
2021/06/24 15:29:12;;;;;;;0.80;0.80;;;25.70;43.70;;;;;;8286343;28;20066;-48
2021/06/24 15:33:12;;;;;;;1.25;0.90;;;25.70;43.70;;;;;;8288278;28;20042;-49
2021/06/24 15:37:13;;;;;;;;;;;25.70;43.70;;;;;;8272007;28;20472;-51
2021/06/24 15:41:13;;;;;;;1.63;1.00;;;25.70;43.70;;;;;;8264361;28;19922;-52
2021/06/24 15:45:18;;;;;;;;;;;25.70;43.70;;;;;;8258681;28;20544;-49
2021/06/24 15:49:18;;;;;;;1.90;1.20;;;25.70;43.70;;;;;;8266861;28;19917;-51
2021/06/24 15:53:19;;;;;;;2.05;1.30;;;25.70;43.70;;;;;;8264315;28;20047;-48
2021/06/24 15:57:19;;;;;;;;;;;25.70;43.70;;;;;;8265088;28;20043;-50
2021/06/24 16:01:20;;;;;;;2.07;1.40;;;25.60;43.70;;;;;;8263762;28;19914;-50
2021/06/24 16:05:21;;;;;;;;;;;25.70;43.80;;;;;;8265157;28;20042;-50
2021/06/24 16:09:21;;;;;;;1.87;1.40;;;25.60;43.70;;;;;;8266323;28;19913;-52
2021/06/24 16:13:22;;;;;;;;;;;25.60;43.70;;;;;;8263331;28;20467;-50
2021/06/24 16:17:22;;;;;;;2.40;1.87;;;25.60;43.80;;;;;;8264749;28;19913;-51
2021/06/24 16:21:23;;;;;;;1.90;1.52;;;25.60;44.40;;;;;;8270724;28;20819;-50
2021/06/24 16:25:24;;;;;;;1.45;1.20;;;25.60;43.80;;;;;;8267617;28;20117;-51
2021/06/24 16:29:26;;;;;;;2.13;1.58;;;25.60;43.80;;;;;;8263182;28;20085;-50
2021/06/24 16:33:26;;;;;;;1.73;1.58;;;25.60;43.80;;;;;;8263003;28;20050;-49
2021/06/24 16:37:27;;;;;;;2.30;1.50;;;25.60;43.80;;;;;;8262576;28;20045;-49
2021/06/24 16:41:28;;;;;;;;;;;25.60;43.90;;;;;;8267542;28;20503;-50
2021/06/24 16:45:28;;;;;;;3.47;1.27;;;25.60;43.90;;;;;;8263113;28;20363;-48
2021/06/24 16:49:29;;;;;;;1.67;1.58;;;25.60;43.90;;;;;;8261957;28;20030;-48
2021/06/24 16:53:29;;;;;;;2.28;1.27;;;25.60;43.90;;;;;;8262292;28;20069;-48
2021/06/24 16:57:30;;;;;;;2.38;1.80;;;25.60;43.90;;;;;;8262301;28;20400;-50
2021/06/24 17:01:32;;;;;;;3.92;1.90;;;25.60;43.90;;;;;;8265761;28;20033;-50
2021/06/24 17:05:32;;;;;;;1.70;1.60;;;25.60;43.90;;;;;;8262208;28;20529;-51
2021/06/24 17:09:33;;;;;;;2.60;2.10;;;25.60;43.90;;;;;;8262034;28;20034;-51
2021/06/24 17:13:34;;;;;;;2.85;1.92;;;25.50;43.90;;;;;;8260834;28;20046;-51
2021/06/24 17:17:36;;;;;;;3.28;1.80;;;25.50;43.90;;;;;;8266210;28;20054;-52
2021/06/24 17:21:38;;;;;;;2.97;2.10;;;25.50;43.90;;;;;;8261615;28;20057;-50
2021/06/24 17:25:38;;;;;;;;;;;25.50;43.90;;;;;;8261764;28;20022;-51
2021/06/24 17:29:39;;;;;;;2.67;2.13;;;25.50;43.90;;;;;;8260736;28;19936;-53
2021/06/24 17:33:39;;;;;;;2.95;2.38;;;25.50;43.90;;;;;;8265822;28;20523;-52
2021/06/24 17:37:40;;;;;;;;;;;25.50;43.90;;;;;;8261351;28;20566;-53
2021/06/24 17:41:41;;;;;;;4.00;2.30;;;25.50;43.90;;;;;;8261141;28;19913;-50
2021/06/24 17:45:41;;;;;;;;;;;25.50;43.90;;;;;;8261505;28;20110;-50
2021/06/24 17:49:42;;;;;;;2.87;2.00;;;25.40;43.90;;;;;;8260816;28;19921;-53
2021/06/24 17:53:42;;;;;;;2.47;1.65;;;25.40;43.80;;;;;;8265275;28;20093;-53
2021/06/24 17:57:44;;;;;;;3.10;2.08;;;25.40;43.80;;;;;;8260933;28;20045;-53
2021/06/24 18:01:45;;;;;;;2.60;1.77;;;25.40;43.80;;;;;;8260354;28;20037;-54
2021/06/24 18:05:46;;;;;;;2.53;1.98;;;25.40;43.80;;;;;;8261317;28;20034;-53
2021/06/24 18:09:46;;;;;;;2.25;1.73;;;25.40;43.80;;;;;;8265129;28;20034;-51
2021/06/24 18:13:47;;;;;;;2.13;1.85;;;25.40;43.80;;;;;;8263900;28;20120;-53
2021/06/24 18:17:47;;;;;;;2.13;1.90;;;25.40;43.80;;;;;;8267426;28;20030;-53
2021/06/24 18:21:48;;;;;;;1.83;1.73;;;25.40;43.70;;;;;;8267034;28;20076;-52
2021/06/24 18:25:49;;;;;;;2.35;1.80;;;25.40;43.70;;;;;;8267686;28;20094;-49
2021/06/24 18:29:49;;;;;;;2.10;1.90;;;25.40;43.70;;;;;;8270340;28;20030;-53
2021/06/24 18:33:50;;;;;;;4.32;2.42;;;25.40;43.70;;;;;;8266590;28;20408;-53
2021/06/24 18:37:50;;;;;;;;;;;25.40;43.70;;;;;;8266534;28;20042;-52
2021/06/24 18:41:51;;;;;;;2.17;1.90;;;25.40;43.70;;;;;;8263454;28;19937;-52
2021/06/24 18:45:51;;;;;;;2.70;2.00;;;25.30;43.60;;;;;;8238718;28;20049;-52
2021/06/24 18:49:52;;;;;;;2.60;1.85;;;25.40;43.70;;;;;;8261261;28;20072;-53
2021/06/24 18:53:53;;;;;;;2.30;1.55;;;25.30;43.60;;;;;;8266172;28;20046;-49
2021/06/24 18:57:53;;;;;;;3.08;1.75;;;25.30;43.60;;;;;;8265514;28;20065;-49
2021/06/24 19:01:54;;;;;;;2.35;1.80;;;25.30;43.70;;;;;;8269217;28;20026;-52
2021/06/24 19:05:54;;;;;;;2.22;1.70;;;25.30;43.70;;;;;;8265957;28;20046;-53
2021/06/24 19:09:55;;;;;;;3.75;1.60;;;25.30;43.60;;;;;;8265552;28;20488;-51
2021/06/24 19:13:56;;;;;;;2.22;1.80;;;25.30;43.70;;;;;;8265513;28;20049;-49
2021/06/24 19:17:56;;;;;;;2.47;1.60;;;25.20;43.60;;;;;;8265623;28;20039;-48
2021/06/24 19:21:57;;;;;;;4.80;1.77;;;25.30;43.60;;;;;;8269144;28;20053;-50
2021/06/24 19:25:57;;;;;;;1.80;1.50;;;25.30;43.70;;;;;;8264218;28;20065;-49
2021/06/24 19:29:58;;;;;;;1.88;1.45;;;25.30;43.70;;;;;;8265166;28;20035;-53
2021/06/24 19:33:59;;;;;;;1.95;1.70;;;25.30;43.70;;;;;;8264155;28;20042;-51
2021/06/24 19:38:00;;;;;;;2.35;1.83;;;25.20;43.60;;;;;;8269501;28;20053;-52
2021/06/24 19:42:03;;;;;;;2.83;1.80;;;25.20;43.60;;;;;;8247534;28;20038;-49
2021/06/24 19:46:03;;;;;;;2.10;1.52;;;25.20;43.60;;;;;;8233197;28;20034;-53
2021/06/24 19:50:04;;;;;;;2.08;1.55;;;25.20;43.60;;;;;;8264737;28;20040;-48
2021/06/24 19:54:05;;;;;;;1.63;1.50;;;25.20;43.60;;;;;;8269312;28;20047;-49
2021/06/24 19:58:05;;;;;;;1.63;1.52;;;25.20;43.60;;;;;;8262543;28;20085;-49
2021/06/24 20:02:06;;;;;;;1.30;1.20;;;25.20;43.60;;;;;;8264202;28;20058;-51
2021/06/24 20:06:06;;;;;;;3.00;1.80;;;25.20;43.60;;;;;;8263412;28;20053;-49
2021/06/24 20:10:09;;;;;;;1.40;1.20;;;25.20;43.70;;;;;;8263509;28;20476;-49
2021/06/24 20:14:10;;;;;;;1.50;1.40;;;25.20;43.60;;;;;;8268117;28;20038;-51
2021/06/24 20:18:10;;;;;;;1.50;1.38;;;25.20;43.70;;;;;;8263751;28;20408;-48
2021/06/24 20:22:11;;;;;;;2.33;1.40;;;25.20;43.70;;;;;;8263432;28;20447;-49
2021/06/24 20:26:12;;;;;;;1.98;1.30;;;25.10;43.60;;;;;;8263663;28;20042;-49
2021/06/24 20:30:15;;;;;;;1.92;1.23;;;25.10;43.60;;;;;;8267794;28;20136;-50
2021/06/24 20:34:16;;;;;;;2.53;1.48;;;25.10;43.60;;;;;;8262622;28;20097;-53
2021/06/24 20:38:16;;;;;;;1.30;1.20;;;25.10;43.60;;;;;;8262127;28;20133;-49
2021/06/24 20:42:17;;;;;;;2.53;1.38;;;25.10;43.70;;;;;;8263159;28;20101;-50
2021/06/24 20:46:18;;;;;;;1.70;1.60;;;25.00;43.60;;;;;;8262572;28;20491;-49
2021/06/24 20:50:19;;;;;;;1.77;1.30;;;25.10;43.70;;;;;;8267208;28;20050;-49
2021/06/24 20:54:19;;;;;;;1.70;1.15;;;25.10;43.60;;;;;;8262826;28;20454;-50
2021/06/24 20:58:26;;;;;;;1.98;1.38;;;25.00;43.60;;;;;;8261976;28;20031;-49
2021/06/24 21:02:29;;;;;;;1.40;1.30;;;25.10;43.70;;;;;;8262204;28;20066;-50
2021/06/24 21:06:29;;;;;;;1.40;1.17;;;25.00;43.60;;;;;;8266654;28;20034;-48
2021/06/24 21:10:30;;;;;;;1.35;1.23;;;25.00;43.60;;;;;;8261912;28;20137;-55
2021/06/24 21:14:30;;;;;;;1.30;1.20;;;25.00;43.70;;;;;;8261950;28;20527;-53
2021/06/24 21:18:31;;;;;;;2.28;1.60;;;25.00;43.60;;;;;;8261750;28;20108;-52
2021/06/24 21:22:33;;;;;;;2.38;1.48;;;25.00;43.70;;;;;;8265845;28;20372;-52
2021/06/24 21:26:35;;;;;;;2.13;1.55;;;25.00;43.70;;;;;;8263184;28;20049;-50